Time;durP1;ratioP1;P1;durP2;ratioP2;P2;SDS_P1;SDS_P2;PMS_P1;PMS_P2;Temp;Humidity;BMP_temperature;BMP_pressure;BME280_temperature;BME280_humidity;BME280_pressure;Samples;Min_cycle;Max_cycle;Signal;HPM_P1;HPM_P2
2022/12/26 00:00:42;;;;;;;;;7.33;7.00;;;;;12.88;74.08;100858.47;5039317;28;47994;-70
2022/12/26 00:03:08;;;;;;;;;8.00;7.00;;;;;13.02;74.65;100886.41;5057267;28;45296;-73
2022/12/26 00:05:36;;;;;;;;;10.33;8.00;;;;;12.83;74.60;100868.75;5057701;28;45771;-72
2022/12/26 00:08:02;;;;;;;;;7.67;6.00;;;;;13.35;74.38;100946.22;5057513;28;45187;-72
2022/12/26 00:10:27;;;;;;;;;8.00;6.67;;;;;13.52;74.62;100974.72;5039098;28;47552;-74
2022/12/26 00:12:53;;;;;;;;;8.33;5.67;;;;;13.34;74.51;100939.19;5040646;28;45482;-72
2022/12/26 00:15:18;;;;;;;;;9.33;7.00;;;;;13.56;74.54;100980.56;5071249;27;45355;-73
2022/12/26 00:17:44;;;;;;;;;8.00;6.33;;;;;13.31;75.01;100950.19;5077875;27;45416;-71
2022/12/26 00:20:09;;;;;;;;;8.00;6.00;;;;;13.48;74.68;100964.50;5077464;27;45450;-73
2022/12/26 00:22:35;;;;;;;;;8.33;7.67;;;;;13.63;74.57;100987.81;5075980;28;45401;-71
2022/12/26 00:25:01;;;;;;;;;7.00;7.00;;;;;13.63;74.55;100998.50;5076196;28;45410;-72
2022/12/26 00:27:26;;;;;;;;;11.33;9.33;;;;;13.59;74.79;100997.13;5076394;28;45308;-72
2022/12/26 00:29:52;;;;;;;;;6.67;6.67;;;;;13.21;75.09;100938.75;5077303;27;55334;-73
2022/12/26 00:32:17;;;;;;;;;8.33;8.33;;;;;13.56;74.72;100986.75;5077415;27;45501;-72
2022/12/26 00:34:42;;;;;;;;;9.33;9.33;;;;;13.54;75.05;100994.09;5077094;27;51134;-71
2022/12/26 00:37:07;;;;;;;;;8.33;8.33;;;;;13.57;74.97;100993.75;5077168;27;46099;-71
2022/12/26 00:39:33;;;;;;;;;7.00;7.00;;;;;13.21;74.99;100934.25;5076999;27;46055;-72
2022/12/26 00:41:58;;;;;;;;;10.67;9.67;;;;;13.63;74.78;100982.47;5076390;27;62866;-73
2022/12/26 00:44:23;;;;;;;;;8.33;8.33;;;;;13.64;74.64;100985.97;5075784;28;45415;-72
2022/12/26 00:46:49;;;;;;;;;8.67;8.33;;;;;13.64;74.27;101000.19;5077241;27;45247;-73
2022/12/26 00:49:14;;;;;;;;;8.33;7.00;;;;;13.58;74.39;100978.56;5077092;27;45652;-73
2022/12/26 00:51:39;;;;;;;;;6.33;4.67;;;;;13.59;74.76;101007.81;5076978;27;45207;-72
2022/12/26 00:54:05;;;;;;;;;7.33;6.67;;;;;12.77;74.61;100875.53;5076935;27;45341;-70
2022/12/26 00:56:30;;;;;;;;;7.33;7.00;;;;;13.54;75.11;100993.25;5077298;28;45363;-75
2022/12/26 00:58:55;;;;;;;;;8.33;5.00;;;;;13.04;75.03;100916.44;5075383;27;50374;-72
2022/12/26 01:01:22;;;;;;;;;4.67;4.67;;;;;13.22;74.82;100940.47;5077140;27;45536;-71
2022/12/26 01:03:48;;;;;;;;;6.67;6.67;;;;;13.49;74.91;100988.38;5076880;28;45465;-71
2022/12/26 01:06:15;;;;;;;;;10.67;7.67;;;;;13.53;74.88;100992.41;5077009;27;45588;-75
2022/12/26 01:08:41;;;;;;;;;5.67;5.67;;;;;13.51;74.98;101002.41;5077273;28;47792;-72
2022/12/26 01:11:09;;;;;;;;;6.00;4.33;;;;;13.40;74.90;100997.31;5080276;27;45382;-72
2022/12/26 01:13:35;;;;;;;;;3.33;3.33;;;;;13.48;74.91;101005.41;5076795;27;45505;-72
2022/12/26 01:16:01;;;;;;;;;6.33;6.33;;;;;13.49;75.08;101007.09;5060158;28;45356;-71
2022/12/26 01:18:27;;;;;;;;;6.00;4.33;;;;;13.48;75.23;101018.75;5060077;28;46479;-72
2022/12/26 01:20:59;;;;;;;;;6.33;4.67;;;;;13.47;74.77;101037.63;5059882;28;45490;-73
2022/12/26 01:23:24;;;;;;;;;4.67;4.00;;;;;13.05;74.94;100964.34;5041668;28;45316;-73
2022/12/26 01:25:49;;;;;;;;;5.00;4.67;;;;;13.30;75.01;100996.59;5060082;28;45146;-73
2022/12/26 01:28:15;;;;;;;;;5.00;5.00;;;;;13.25;75.01;100998.91;5059797;28;46198;-72
2022/12/26 01:30:40;;;;;;;;;2.67;2.67;;;;;13.35;75.06;101021.00;5059590;28;45920;-71
2022/12/26 01:33:06;;;;;;;;;4.00;3.00;;;;;13.25;75.08;101012.25;5059874;28;45540;-74
2022/12/26 01:35:31;;;;;;;;;5.00;3.00;;;;;13.29;75.39;101013.59;5060129;28;45534;-71
2022/12/26 01:37:57;;;;;;;;;4.00;4.00;;;;;12.87;75.14;100944.84;5041395;28;48562;-72
2022/12/26 01:40:23;;;;;;;;;7.33;5.33;;;;;13.14;75.30;101007.09;5059483;28;45324;-74
2022/12/26 01:42:48;;;;;;;;;2.00;2.00;;;;;13.26;75.16;101037.94;5059856;28;45341;-71
2022/12/26 01:45:20;;;;;;;;;3.67;2.67;;;;;13.06;75.12;101016.72;5061544;28;45300;-73
2022/12/26 01:47:50;;;;;;;;;4.33;2.67;;;;;12.91;75.52;100986.22;5059228;28;46063;-71
2022/12/26 01:50:22;;;;;;;;;4.00;4.00;;;;;13.25;75.37;101060.31;5058019;28;45330;-72
2022/12/26 01:52:48;;;;;;;;;3.00;3.00;;;;;13.22;75.07;101077.47;5059696;28;45268;-72
2022/12/26 01:55:17;;;;;;;;;4.33;2.00;;;;;12.77;75.50;101002.75;5059572;28;45547;-71
2022/12/26 01:57:46;;;;;;;;;7.33;4.00;;;;;12.74;75.22;101000.41;5059162;28;46290;-71
2022/12/26 02:00:13;;;;;;;;;4.00;3.00;;;;;13.12;75.16;101051.81;5059329;28;45250;-71
2022/12/26 02:05:35;;;;;;;;;5.00;4.00;;;;;12.98;75.33;101029.97;5059402;28;45264;-70
2022/12/26 02:08:12;;;;;;;;;3.00;2.67;;;;;13.34;74.73;101064.72;5040928;28;46714;-73
2022/12/26 02:11:25;;;;;;;;;4.00;3.33;;;;;12.98;74.75;101019.31;5059213;28;45333;-72
2022/12/26 02:13:51;;;;;;;;;3.00;3.00;;;;;13.03;74.94;101027.72;5058179;28;45542;-72
2022/12/26 02:16:17;;;;;;;;;1.00;1.00;;;;;13.34;74.36;101067.38;5059235;28;45241;-72
2022/12/26 02:18:43;;;;;;;;;2.33;2.33;;;;;13.28;74.66;101062.66;5040649;28;47470;-72
2022/12/26 02:21:27;;;;;;;;;3.33;1.00;;;;;13.30;74.41;101060.69;5059000;28;45298;-71
2022/12/26 02:23:58;;;;;;;;;2.67;2.67;;;;;13.27;74.52;101048.47;5058978;28;45268;-74
2022/12/26 02:26:45;;;;;;;;;3.67;3.00;;;;;12.57;75.20;100940.72;5059224;28;45471;-72
2022/12/26 02:30:00;;;;;;;;;2.00;2.00;;;;;12.05;74.83;100855.22;5058623;28;45687;-72
2022/12/26 02:32:49;;;;;;;;;2.00;2.00;;;;;13.24;74.90;101063.97;4976846;28;45523;-73
2022/12/26 02:35:24;;;;;;;;;3.00;1.33;;;;;13.26;75.02;101075.34;5055188;28;45226;-73
2022/12/26 02:37:55;;;;;;;;;1.00;1.00;;;;;13.30;74.93;101082.03;5040873;28;45222;-72
2022/12/26 02:40:34;;;;;;;;;2.33;2.33;;;;;13.30;74.87;101074.03;5040254;28;47057;-71
2022/12/26 02:43:39;;;;;;;;;3.67;2.67;;;;;13.32;74.92;101064.03;5058506;28;45284;-73
2022/12/26 03:14:25;;;;;;;;;2.67;1.67;;;;;13.20;75.81;101054.56;5058164;28;45400;-72
2022/12/26 03:20:00;;;;;;;;;1.00;1.00;;;;;13.18;75.26;101048.53;5058151;28;45480;-70
2022/12/26 03:22:57;;;;;;;;;3.00;2.00;;;;;13.09;75.36;101020.91;5058126;28;45354;-73
2022/12/26 03:28:21;;;;;;;;;1.00;1.00;;;;;13.03;75.31;101022.38;5058985;28;45429;-72
2022/12/26 03:30:49;;;;;;;;;2.00;2.00;;;;;12.61;75.34;100971.41;5057051;28;45373;-74
2022/12/26 03:36:41;;;;;;;;;1.00;1.00;;;;;13.18;75.25;101053.88;5058158;28;45247;-69
2022/12/26 04:20:19;;;;;;;;;3.00;3.00;;;;;12.81;75.55;101049.47;5057207;28;45182;-72
2022/12/26 04:46:05;;;;;;;;;2.00;2.00;;;;;12.75;76.27;101074.09;5060812;28;45234;-71
2022/12/26 04:51:15;;;;;;;;;2.00;2.00;;;;;12.91;76.26;101114.31;5060367;28;45354;-72
2022/12/26 04:53:41;;;;;;;;;3.00;2.00;;;;;12.86;76.45;101121.09;5042410;28;45490;-73
2022/12/26 04:56:08;;;;;;;;;1.00;1.00;;;;;12.49;76.22;101073.97;5042410;28;45542;-71
2022/12/26 04:58:33;;;;;;;;;3.00;1.00;;;;;12.89;76.73;101142.16;5058676;28;48731;-71
2022/12/26 05:09:33;;;;;;;;;1.00;1.00;;;;;12.60;75.86;101094.25;5060077;28;48300;-73
2022/12/26 05:09:33;;;;;;;;;3.00;2.00;;;;;12.90;76.30;101143.81;5059968;28;45403;-70
2022/12/26 05:12:00;;;;;;;;;3.00;1.00;;;;;12.91;76.24;101162.34;5060061;28;45376;-71
2022/12/26 05:14:25;;;;;;;;;1.33;1.33;;;;;12.56;76.37;101092.88;5058914;28;45264;-72
2022/12/26 05:30:37;;;;;;;;;2.00;2.00;;;;;12.64;75.86;101128.53;5079933;27;46392;-74
2022/12/26 05:35:46;;;;;;;;;4.67;4.67;;;;;12.78;75.58;101137.84;5080115;27;45273;-73
2022/12/26 05:38:11;;;;;;;;;2.00;2.00;;;;;12.80;76.10;101142.03;5080163;27;45325;-71
2022/12/26 05:40:37;;;;;;;;;2.00;2.00;;;;;12.74;76.05;101134.63;5078515;28;47290;-72
2022/12/26 05:43:02;;;;;;;;;2.00;2.00;;;;;12.69;76.04;101142.25;5079914;27;45503;-71
2022/12/26 05:45:28;;;;;;;;;1.00;1.00;;;;;12.48;75.54;101107.81;5078718;28;45338;-72
2022/12/26 05:48:01;;;;;;;;;1.33;1.33;;;;;12.86;75.23;101188.66;5078660;28;45481;-71
2022/12/26 05:50:27;;;;;;;;;4.00;1.33;;;;;12.72;74.84;101171.28;5079158;27;46997;-71
2022/12/26 05:52:52;;;;;;;;;1.33;1.33;;;;;12.88;74.74;101197.34;5079618;27;45296;-72
2022/12/26 05:55:17;;;;;;;;;1.00;1.00;;;;;12.26;74.84;101113.53;5079117;28;45989;-73
2022/12/26 05:57:43;;;;;;;;;2.00;1.00;;;;;12.59;74.35;101151.28;5079865;27;45261;-72
2022/12/26 06:00:09;;;;;;;;;2.33;1.00;;;;;12.73;74.44;101167.63;5079278;27;55125;-72
2022/12/26 06:02:34;;;;;;;;;1.00;1.00;;;;;12.93;74.26;101208.41;5079360;28;45521;-71
2022/12/26 06:04:59;;;;;;;;;2.00;1.00;;;;;12.88;73.73;101192.00;5079759;28;45382;-71
2022/12/26 06:07:25;;;;;;;;;3.00;2.00;;;;;12.23;73.68;101084.50;5078691;27;54594;-71
2022/12/26 06:09:50;;;;;;;;;2.00;2.00;;;;;12.93;73.23;101199.56;5079342;27;45449;-73
2022/12/26 06:12:15;;;;;;;;;1.00;1.00;;;;;12.51;73.31;101128.00;5079447;27;45428;-71
2022/12/26 06:14:40;;;;;;;;;0.33;0.33;;;;;12.86;72.85;101207.34;5066591;27;45451;-72
2022/12/26 06:17:06;;;;;;;;;3.00;2.00;;;;;12.43;73.16;101120.75;5059110;28;45473;-69
2022/12/26 06:19:31;;;;;;;;;2.00;2.00;;;;;12.76;73.29;101190.50;5058606;28;56039;-72
2022/12/26 06:21:56;;;;;;;;;2.00;2.00;;;;;12.48;73.17;101138.97;5058637;28;52865;-71
2022/12/26 06:24:22;;;;;;;;;1.67;1.67;;;;;12.64;73.20;101170.38;5058852;28;45290;-71
2022/12/26 06:26:48;;;;;;;;;3.33;1.00;;;;;12.61;73.17;101182.13;5059077;28;45344;-70
2022/12/26 06:29:13;;;;;;;;;3.00;3.00;;;;;12.63;73.40;101190.03;5058587;28;45616;-71
2022/12/26 06:31:39;;;;;;;;;1.00;1.00;;;;;12.67;73.31;101181.56;5040305;28;45601;-71
2022/12/26 06:34:04;;;;;;;;;3.33;2.00;;;;;12.65;72.98;101182.72;5059545;28;45257;-71
2022/12/26 06:36:30;;;;;;;;;1.00;1.00;;;;;12.17;72.99;101117.03;5059643;28;45165;-73
2022/12/26 06:38:56;;;;;;;;;2.00;1.00;;;;;12.48;73.51;101193.16;5040610;28;49018;-71
2022/12/26 06:41:23;;;;;;;;;0.75;0.75;;;;;11.64;73.03;101053.66;5058782;28;45171;-71
2022/12/26 06:43:49;;;;;;;;;1.00;1.00;;;;;12.05;73.35;101126.22;5059455;28;45647;-71
2022/12/26 06:46:17;;;;;;;;;5.67;1.00;;;;;11.75;73.12;101085.44;5059122;28;45308;-71
2022/12/26 06:48:43;;;;;;;;;2.67;2.67;;;;;11.94;73.30;101121.03;5058510;28;46061;-73
2022/12/26 06:51:15;;;;;;;;;2.33;2.33;;;;;12.51;73.64;101228.50;5058382;28;45349;-70
2022/12/26 06:53:41;;;;;;;;;4.00;2.00;;;;;10.38;73.35;100889.75;5040208;28;45269;-74
2022/12/26 06:56:21;;;;;;;;;1.00;1.00;;;;;12.52;73.46;101232.88;5040466;28;45316;-71
2022/12/26 06:58:51;;;;;;;;;3.33;1.67;;;;;12.50;73.44;101233.00;5058466;28;45962;-71
2022/12/26 07:01:18;;;;;;;;;1.00;1.00;;;;;12.46;73.62;101220.97;5058336;28;45411;-72
2022/12/26 07:03:44;;;;;;;;;2.00;2.00;;;;;12.05;73.29;101163.53;5040004;28;45469;-73
2022/12/26 07:06:15;;;;;;;;;2.67;2.33;;;;;12.44;73.71;101242.44;5055976;28;45575;-72
2022/12/26 07:08:40;;;;;;;;;2.67;2.67;;;;;12.47;74.05;101243.97;5058062;28;45717;-72
2022/12/26 07:11:12;;;;;;;;;3.00;3.00;;;;;12.21;73.58;101203.72;5057525;28;54303;-74
2022/12/26 07:13:38;;;;;;;;;1.00;1.00;;;;;12.44;73.79;101242.44;5057977;28;45365;-72
2022/12/26 07:16:03;;;;;;;;;2.00;2.00;;;;;12.21;73.67;101217.06;5058210;28;45557;-71
2022/12/26 07:18:28;;;;;;;;;1.67;1.33;;;;;12.42;73.38;101262.22;5057538;28;45689;-72
2022/12/26 07:20:54;;;;;;;;;1.67;1.67;;;;;12.38;73.68;101250.16;5058052;28;45304;-70
2022/12/26 07:23:19;;;;;;;;;2.67;2.67;;;;;12.17;73.59;101213.84;5039768;28;45957;-71
2022/12/26 07:25:47;;;;;;;;;1.00;1.00;;;;;12.21;73.64;101242.88;5040115;28;45531;-71
2022/12/26 07:28:12;;;;;;;;;4.00;1.67;;;;;12.30;73.86;101253.53;5057854;28;45724;-71
2022/12/26 07:30:38;;;;;;;;;2.00;2.00;;;;;12.09;73.97;101239.53;5057768;28;45384;-72
2022/12/26 07:33:03;;;;;;;;;3.00;2.00;;;;;11.91;73.89;101201.25;5057451;28;53647;-70
2022/12/26 07:35:28;;;;;;;;;2.67;2.33;;;;;12.03;73.71;101211.63;5057310;28;53076;-71
2022/12/26 07:37:53;;;;;;;;;2.00;2.00;;;;;11.73;73.72;101153.97;5057580;28;45804;-72
2022/12/26 07:40:19;;;;;;;;;1.00;1.00;;;;;12.26;73.77;101257.47;5057580;28;48909;-71
2022/12/26 07:42:44;;;;;;;;;3.67;3.00;;;;;12.34;73.87;101273.59;5057419;28;45253;-73
2022/12/26 07:45:09;;;;;;;;;2.00;2.00;;;;;12.08;74.12;101219.19;5057782;28;45445;-72
2022/12/26 07:47:35;;;;;;;;;3.00;2.67;;;;;12.18;74.62;101249.34;5040841;28;48669;-72
2022/12/26 07:50:00;;;;;;;;;4.33;1.67;;;;;11.80;74.17;101202.22;5058638;28;45510;-72
2022/12/26 07:52:26;;;;;;;;;2.00;2.00;;;;;12.23;74.82;101279.09;5057503;28;45369;-73
2022/12/26 07:54:51;;;;;;;;;6.00;2.00;;;;;12.33;74.49;101289.75;5057566;28;45329;-74
2022/12/26 07:57:16;;;;;;;;;2.33;2.00;;;;;11.94;74.46;101214.28;5057290;28;45379;-72
2022/12/26 07:59:42;;;;;;;;;3.00;3.00;;;;;12.34;74.35;101281.59;5057094;28;45981;-71
2022/12/26 08:02:09;;;;;;;;;3.00;2.00;;;;;12.38;74.29;101287.47;5057391;28;45677;-72
2022/12/26 08:04:35;;;;;;;;;3.00;3.00;;;;;12.43;74.13;101291.44;5057503;28;45405;-73
2022/12/26 08:07:00;;;;;;;;;3.00;2.00;;;;;10.61;74.29;101002.81;5057241;28;46302;-71
2022/12/26 08:09:25;;;;;;;;;2.00;1.00;;;;;12.11;73.96;101241.06;5038946;28;45464;-73
2022/12/26 08:11:51;;;;;;;;;3.00;3.00;;;;;12.46;74.41;101299.13;5057031;28;45515;-73
2022/12/26 08:14:16;;;;;;;;;2.00;2.00;;;;;12.45;74.23;101288.59;5057229;28;45426;-72
2022/12/26 08:16:42;;;;;;;;;3.33;2.00;;;;;12.52;73.89;101299.53;5056469;28;45697;-73
2022/12/26 08:19:09;;;;;;;;;2.00;2.00;;;;;12.59;73.46;101311.31;5057192;28;45413;-73
2022/12/26 08:21:34;;;;;;;;;3.00;2.00;;;;;12.27;73.35;101242.31;5039347;28;45477;-71
2022/12/26 08:23:59;;;;;;;;;2.33;2.33;;;;;12.44;73.46;101266.44;5057052;28;45249;-73
2022/12/26 08:26:25;;;;;;;;;2.00;2.00;;;;;11.77;72.58;101152.72;5056713;28;46385;-74
2022/12/26 08:28:51;;;;;;;;;3.00;3.00;;;;;12.80;72.93;101325.31;5057152;28;45388;-74
2022/12/26 08:31:18;;;;;;;;;6.33;4.00;;;;;12.84;72.58;101334.72;5056970;28;45290;-73
2022/12/26 08:33:43;;;;;;;;;1.00;1.00;;;;;12.91;72.10;101329.66;5056906;28;45184;-73
2022/12/26 08:36:11;;;;;;;;;2.00;1.00;;;;;12.97;71.75;101321.88;5056664;28;45608;-72
2022/12/26 08:38:38;;;;;;;;;2.00;2.00;;;;;12.95;71.87;101325.69;5056408;28;45369;-73
2022/12/26 08:41:04;;;;;;;;;2.00;2.00;;;;;12.56;71.77;101266.25;5056617;28;45480;-72
2022/12/26 08:43:29;;;;;;;;;1.00;1.00;;;;;13.05;71.72;101339.88;5038831;28;45506;-71
2022/12/26 08:46:07;;;;;;;;;2.00;2.00;;;;;12.94;71.50;101308.00;5056742;28;45811;-73
2022/12/26 08:48:33;;;;;;;;;5.33;3.33;;;;;13.32;70.63;101361.28;5056657;28;45376;-73
2022/12/26 08:51:02;;;;;;;;;7.00;4.67;;;;;13.29;70.59;101342.06;5056512;28;45452;-73
2022/12/26 08:53:29;;;;;;;;;1.00;1.00;;;;;13.15;70.10;101329.13;5056734;28;45628;-72
2022/12/26 08:55:55;;;;;;;;;0.25;0.25;;;;;13.21;70.44;101356.13;5038518;28;48662;-73
2022/12/26 08:58:21;;;;;;;;;5.00;2.00;;;;;13.30;70.10;101367.75;5057302;28;45425;-73
2022/12/26 09:00:47;;;;;;;;;5.00;2.00;;;;;12.72;69.81;101275.34;5038437;28;45430;-72
2022/12/26 09:03:14;;;;;;;;;0.67;0.67;;;;;13.10;69.98;101349.09;5056497;28;45293;-72
2022/12/26 09:05:39;;;;;;;;;2.00;2.00;;;;;12.91;69.93;101318.97;5055779;28;45502;-73
2022/12/26 09:08:04;;;;;;;;;5.33;3.67;;;;;12.61;69.96;101275.50;5056586;28;45467;-72
2022/12/26 09:10:30;;;;;;;;;6.00;2.33;;;;;13.17;69.68;101375.22;5038151;28;45416;-72
2022/12/26 09:12:55;;;;;;;;;2.00;2.00;;;;;12.90;70.15;101318.13;5056307;28;45575;-73
2022/12/26 09:15:20;;;;;;;;;1.67;1.67;;;;;13.26;69.97;101385.91;5055659;28;45385;-72
2022/12/26 09:17:46;;;;;;;;;2.33;2.00;;;;;13.26;69.72;101398.44;5037863;28;47221;-72
2022/12/26 09:20:11;;;;;;;;;2.33;2.00;;;;;12.58;70.07;101294.47;5056484;28;45425;-74
2022/12/26 09:22:51;;;;;;;;;2.00;2.00;;;;;13.20;70.02;101397.16;5056242;28;45594;-73
2022/12/26 09:25:18;;;;;;;;;4.00;4.00;;;;;12.96;70.27;101357.56;5055736;28;45776;-73
2022/12/26 09:27:44;;;;;;;;;2.67;1.67;;;;;13.21;70.25;101414.00;5055963;28;45285;-72
2022/12/26 09:30:09;;;;;;;;;3.00;2.00;;;;;13.07;70.16;101392.13;5040557;28;46578;-72
2022/12/26 09:32:35;;;;;;;;;1.50;1.50;;;;;13.18;70.04;101403.63;5059438;28;45319;-72
2022/12/26 09:35:01;;;;;;;;;5.00;4.00;;;;;12.56;70.48;101317.78;5059239;28;46576;-72
2022/12/26 09:37:26;;;;;;;;;4.00;2.00;;;;;13.07;70.33;101381.44;5041057;28;46086;-71
2022/12/26 09:39:52;;;;;;;;;2.33;2.33;;;;;12.97;70.47;101388.63;5041587;28;45396;-74
2022/12/26 09:42:39;;;;;;;;;1.33;1.33;;;;;13.21;70.51;101414.00;5059235;28;45494;-74
2022/12/26 09:45:18;;;;;;;;;4.00;2.00;;;;;12.82;70.61;101344.72;5059027;28;45670;-74
2022/12/26 09:48:05;;;;;;;;;1.67;1.67;;;;;13.22;70.38;101415.72;5058004;28;46866;-75
2022/12/26 09:50:34;;;;;;;;;1.00;1.00;;;;;13.17;70.77;101417.94;5041128;28;45423;-73
2022/12/26 09:53:11;;;;;;;;;1.00;1.00;;;;;13.24;70.48;101421.75;5041045;28;45478;-73
2022/12/26 09:55:53;;;;;;;;;2.00;1.00;;;;;12.95;70.53;101393.25;5059022;28;45388;-72
2022/12/26 09:58:51;;;;;;;;;2.00;1.00;;;;;13.04;70.90;101400.41;5058843;28;45301;-73
2022/12/26 10:01:24;;;;;;;;;2.67;2.00;;;;;13.30;70.39;101434.53;5055046;28;45329;-75
2022/12/26 10:04:03;;;;;;;;;2.00;2.00;;;;;13.26;70.59;101422.47;5041801;28;45269;-74
2022/12/26 10:06:40;;;;;;;;;1.33;0.67;;;;;13.27;70.49;101424.13;5058978;28;46522;-74
2022/12/26 10:09:11;;;;;;;;;2.33;2.33;;;;;13.30;70.50;101418.50;5058730;28;45402;-71
2022/12/26 10:11:48;;;;;;;;;2.33;2.33;;;;;13.15;70.39;101393.22;5060265;28;45517;-73
2022/12/26 10:14:49;;;;;;;;;2.00;2.00;;;;;13.18;70.50;101411.63;5053807;28;45581;-75
2022/12/26 10:17:48;;;;;;;;;2.33;2.33;;;;;13.29;70.19;101428.34;5070754;28;45546;-72
2022/12/26 10:20:31;;;;;;;;;2.00;2.00;;;;;13.35;70.41;101433.09;5075904;27;45512;-71
2022/12/26 10:23:33;;;;;;;;;1.00;1.00;;;;;13.34;70.36;101426.06;5078824;27;45228;-72
2022/12/26 10:26:07;;;;;;;;;0.67;0.67;;;;;12.48;69.87;101283.81;5091753;27;45450;-73
2022/12/26 10:28:58;;;;;;;;;1.67;1.00;;;;;12.69;69.81;101323.66;5077118;27;47468;-72
2022/12/26 10:31:23;;;;;;;;;2.00;2.00;;;;;13.39;69.84;101425.63;5069640;28;45355;-73
2022/12/26 10:33:57;;;;;;;;;1.00;1.00;;;;;13.41;69.60;101426.31;5077483;28;45467;-73
2022/12/26 10:36:31;;;;;;;;;0.33;0.33;;;;;12.77;69.75;101317.59;5077627;27;45552;-73
2022/12/26 10:38:59;;;;;;;;;1.33;1.00;;;;;13.48;69.31;101416.75;5077256;28;46440;-73
2022/12/26 10:41:34;;;;;;;;;2.67;1.33;;;;;13.53;69.37;101422.50;5078354;27;45484;-72
2022/12/26 10:44:00;;;;;;;;;3.33;1.33;;;;;13.53;69.39;101419.81;5077056;28;45362;-72
2022/12/26 10:46:49;;;;;;;;;2.67;2.67;;;;;13.48;68.99;101422.09;5078704;27;45441;-73
2022/12/26 10:49:19;;;;;;;;;3.67;2.33;;;;;13.58;69.03;101425.56;5077014;28;47533;-74
2022/12/26 10:51:44;;;;;;;;;0.67;0.67;;;;;13.40;69.05;101388.09;5076900;28;45520;-75
2022/12/26 10:54:15;;;;;;;;;0.67;0.67;;;;;13.06;68.64;101334.38;5078460;27;45463;-71
2022/12/26 10:56:41;;;;;;;;;1.33;1.33;;;;;13.53;68.49;101418.97;5077754;27;45207;-70
2022/12/26 10:59:14;;;;;;;;;2.67;1.67;;;;;12.86;69.00;101324.75;5079241;27;46492;-73
2022/12/26 11:01:46;;;;;;;;;1.33;1.00;;;;;13.46;68.43;101426.75;5078170;27;45343;-72
2022/12/26 11:04:21;;;;;;;;;0.67;0.67;;;;;13.65;68.81;101437.38;5076950;28;46721;-72
2022/12/26 11:06:51;;;;;;;;;4.00;0.67;;;;;13.37;68.54;101395.56;5076745;28;45551;-73
2022/12/26 11:09:39;;;;;;;;;1.33;1.33;;;;;13.68;68.90;101445.09;5076679;28;47658;-72
2022/12/26 11:12:41;;;;;;;;;1.00;1.00;;;;;13.69;68.27;101445.94;5076836;28;45748;-73
2022/12/26 11:15:21;;;;;;;;;0.00;0.00;;;;;13.72;68.47;101455.47;5059219;28;45532;-73
2022/12/26 11:17:50;;;;;;;;;3.33;0.67;;;;;13.47;68.19;101404.41;5058214;28;45454;-72
2022/12/26 11:20:15;;;;;;;;;1.00;1.00;;;;;13.65;68.59;101440.03;5057611;28;46478;-71
2022/12/26 11:22:42;;;;;;;;;1.00;1.00;;;;;13.03;68.31;101342.69;5039356;28;45252;-73
2022/12/26 11:25:16;;;;;;;;;0.67;0.67;;;;;13.51;68.19;101405.78;5058686;28;45452;-73
2022/12/26 11:27:44;;;;;;;;;1.00;1.00;;;;;13.48;68.41;101398.06;5058673;28;45452;-74
2022/12/26 11:30:19;;;;;;;;;1.00;1.00;;;;;12.98;68.09;101302.22;5039457;28;47535;-73
2022/12/26 11:32:48;;;;;;;;;2.33;2.33;;;;;13.51;68.04;101405.78;5057085;28;45463;-73
2022/12/26 11:35:26;;;;;;;;;1.33;1.33;;;;;13.70;68.90;101424.41;5057290;28;45361;-73
2022/12/26 11:37:54;;;;;;;;;2.00;2.00;;;;;13.64;68.38;101400.94;5057825;28;45323;-72
2022/12/26 11:40:27;;;;;;;;;1.33;1.33;;;;;13.64;68.31;101400.09;5057359;28;46089;-72
2022/12/26 11:42:57;;;;;;;;;4.33;3.00;;;;;13.84;68.00;101416.88;5057347;28;45341;-72
2022/12/26 11:45:26;;;;;;;;;1.33;1.33;;;;;12.21;67.18;101182.41;5039624;28;45315;-74
2022/12/26 11:47:56;;;;;;;;;1.67;0.67;;;;;13.90;67.32;101440.34;5057898;28;45494;-71
2022/12/26 11:50:26;;;;;;;;;3.00;0.67;;;;;13.66;66.96;101414.16;5057424;28;45654;-76
2022/12/26 11:53:15;;;;;;;;;2.67;0.00;;;;;13.58;66.72;101406.03;5055336;28;45369;-71
2022/12/26 11:55:40;;;;;;;;;1.33;0.67;;;;;13.82;66.40;101445.59;5056109;28;45514;-74
2022/12/26 11:58:08;;;;;;;;;0.33;0.33;;;;;13.88;66.06;101448.50;5057516;28;45498;-76
2022/12/26 12:00:37;;;;;;;;;2.33;0.67;;;;;13.87;66.50;101440.63;5057292;28;46137;-73
2022/12/26 12:03:13;;;;;;;;;3.00;0.00;;;;;13.42;65.90;101369.28;5039086;28;45391;-73
2022/12/26 12:05:49;;;;;;;;;0.67;0.67;;;;;13.95;66.77;101454.09;5055976;28;45295;-72
2022/12/26 12:08:29;;;;;;;;;3.00;1.67;;;;;13.92;66.31;101454.41;5039043;28;46738;-72
2022/12/26 12:11:07;;;;;;;;;1.00;0.67;;;;;13.97;65.63;101444.09;5057029;28;46358;-74
2022/12/26 12:13:47;;;;;;;;;2.33;1.00;;;;;13.98;65.49;101448.44;5056868;28;45233;-74
2022/12/26 12:16:48;;;;;;;;;2.00;2.00;;;;;13.98;65.49;101461.81;5057002;28;45652;-74
2022/12/26 12:19:46;;;;;;;;;1.67;0.00;;;;;13.93;66.53;101482.81;5056403;28;45280;-73
2022/12/26 12:22:33;;;;;;;;;1.67;1.67;;;;;13.68;66.40;101485.16;5056988;28;46145;-73
2022/12/26 12:25:23;;;;;;;;;2.33;1.33;;;;;13.56;67.25;101482.81;5039053;28;45304;-74
2022/12/26 12:28:07;;;;;;;;;3.33;3.33;;;;;13.46;67.84;101482.84;5056890;28;45239;-72
2022/12/26 12:30:37;;;;;;;;;3.00;0.33;;;;;13.37;68.56;101484.53;5038956;28;45319;-73
2022/12/26 12:33:08;;;;;;;;;5.00;2.33;;;;;13.41;68.46;101487.75;5038544;28;48600;-72
2022/12/26 12:35:47;;;;;;;;;3.33;2.33;;;;;13.00;69.11;101449.72;5056998;28;45598;-72
2022/12/26 12:38:27;;;;;;;;;4.33;3.00;;;;;12.73;69.82;101429.09;5056533;28;45391;-74
2022/12/26 12:41:08;;;;;;;;;2.67;2.67;;;;;13.18;70.45;101507.75;5057816;28;45332;-74
2022/12/26 12:43:49;;;;;;;;;3.67;2.33;;;;;13.14;71.03;101509.00;5038316;28;47624;-71
2022/12/26 12:46:29;;;;;;;;;19.67;19.67;;;;;13.18;71.10;101516.63;5056585;28;45407;-76
2022/12/26 12:49:15;;;;;;;;;5.00;4.00;;;;;13.14;70.85;101517.00;5056668;28;45335;-71
2022/12/26 12:52:12;;;;;;;;;1.67;1.33;;;;;12.94;69.86;101534.84;5056763;28;46176;-73
2022/12/26 12:55:04;;;;;;;;;3.33;2.00;;;;;12.84;70.31;101534.88;5056455;28;45591;-74
2022/12/26 12:57:42;;;;;;;;;2.00;2.00;;;;;10.81;70.02;101203.13;5038343;28;45432;-72
2022/12/26 13:00:20;;;;;;;;;1.33;1.33;;;;;12.29;69.79;101435.81;5056901;28;45251;-71
2022/12/26 13:03:10;;;;;;;;;1.00;1.00;;;;;12.81;69.22;101537.78;5056796;28;45328;-74
2022/12/26 13:06:08;;;;;;;;;2.00;1.00;;;;;12.61;68.56;101518.25;5059798;28;45558;-73
2022/12/26 13:08:49;;;;;;;;;2.33;1.00;;;;;12.72;66.64;101527.97;5059969;28;45253;-72
2022/12/26 13:11:36;;;;;;;;;2.00;1.00;;;;;12.70;66.19;101553.94;5060617;28;45435;-71
2022/12/26 13:14:12;;;;;;;;;2.00;2.00;;;;;12.64;65.25;101543.84;5051728;28;45253;-73
2022/12/26 13:17:00;;;;;;;;;5.00;3.00;;;;;12.29;64.61;101497.16;5078452;28;45373;-76
2022/12/26 13:19:33;;;;;;;;;3.00;1.67;;;;;11.95;63.33;101448.66;5079718;28;45442;-74
2022/12/26 13:22:05;;;;;;;;;3.00;1.67;;;;;12.16;62.83;101496.53;5080319;27;45619;-74
2022/12/26 13:24:35;;;;;;;;;3.67;3.00;;;;;12.39;61.96;101530.00;5078643;28;45511;-75
2022/12/26 13:27:03;;;;;;;;;3.00;2.00;;;;;12.61;61.94;101568.94;5079755;27;45727;-72
2022/12/26 13:29:42;;;;;;;;;2.00;2.00;;;;;12.02;61.18;101456.97;5079903;27;45409;-74
2022/12/26 13:32:19;;;;;;;;;1.00;1.00;;;;;12.66;61.64;101564.06;5079679;27;45415;-72
2022/12/26 13:34:46;;;;;;;;;2.67;2.00;;;;;12.55;61.20;101544.63;5080218;28;45306;-73
2022/12/26 13:37:33;;;;;;;;;1.33;1.33;;;;;12.82;60.71;101552.00;5078451;28;47443;-73
2022/12/26 13:40:00;;;;;;;;;1.33;1.33;;;;;12.86;60.62;101572.94;5079769;27;45401;-72
2022/12/26 13:45:41;;;;;;;;;1.00;1.00;;;;;12.99;59.61;101569.97;5080061;27;45513;-74
2022/12/26 13:48:15;;;;;;;;;3.00;3.00;;;;;13.03;59.90;101566.06;5079343;28;45510;-72
2022/12/26 13:50:50;;;;;;;;;8.33;8.00;;;;;12.58;59.32;101488.34;5079406;27;45304;-74
2022/12/26 13:53:24;;;;;;;;;2.00;0.33;;;;;12.96;57.66;101563.09;5078481;27;45208;-75
2022/12/26 13:55:55;;;;;;;;;1.00;1.00;;;;;12.93;58.67;101583.88;5080717;27;45402;-74